Time;durP1;ratioP1;P1;durP2;ratioP2;P2;SDS_P1;SDS_P2;PMS_P1;PMS_P2;Temp;Humidity;BMP_temperature;BMP_pressure;BME280_temperature;BME280_humidity;BME280_pressure;Samples;Min_cycle;Max_cycle;Signal;HPM_P1;HPM_P2
2022/09/21 00:02:14;;;;;;;;;;;;;;;;;;4994241;28;19913;-78
2022/09/21 00:04:40;;;;;;;;;;;;;;;;;;4978314;28;19913;-78
2022/09/21 00:07:05;;;;;;;;;;;;;;;;;;4994106;28;19917;-79
2022/09/21 00:09:30;;;;;;;;;;;;;;;;;;4992943;28;20289;-78
2022/09/21 00:11:56;;;;;;;;;;;;;;;;;;4993157;28;19918;-79
2022/09/21 00:14:21;;;;;;;;;;;;;;;;;;4992671;28;19914;-78
2022/09/21 00:16:47;;;;;;;;;;;;;;;;;;4994417;28;20420;-79
2022/09/21 00:19:12;;;;;;;;;;;;;;;;;;4993530;28;20420;-78
2022/09/21 00:21:37;;;;;;;;;;;;;;;;;;4994612;28;19968;-79
2022/09/21 00:24:03;;;;;;;;;;;;;;;;;;4995322;28;20364;-78
2022/09/21 00:26:28;;;;;;;;;;;;;;;;;;4994279;28;20439;-79
2022/09/21 00:28:54;;;;;;;;;;;;;;;;;;4994371;28;19921;-79
2022/09/21 00:31:19;;;;;;;;;;;;;;;;;;4994728;28;19914;-79
2022/09/21 00:33:44;;;;;;;;;;;;;;;;;;4993825;28;19921;-78
2022/09/21 00:36:10;;;;;;;;;;;;;;;;;;4993536;28;19940;-78
2022/09/21 00:38:35;;;;;;;;;;;;;;;;;;4992833;28;19925;-79
2022/09/21 00:41:01;;;;;;;;;;;;;;;;;;4993117;28;20273;-78
2022/09/21 00:43:26;;;;;;;;;;;;;;;;;;4992776;28;20277;-78
2022/09/21 00:45:51;;;;;;;;;;;;;;;;;;4993891;28;20012;-78
2022/09/21 00:48:17;;;;;;;;;;;;;;;;;;4994203;28;19960;-78
2022/09/21 00:50:42;;;;;;;;;;;;;;;;;;4993103;28;19941;-78
2022/09/21 00:53:07;;;;;;;;;;;;;;;;;;4992637;28;19914;-78
2022/09/21 00:55:33;;;;;;;;;;;;;;;;;;4981709;28;19918;-78
2022/09/21 00:57:58;;;;;;;;;;;;;;;;;;4992638;28;19957;-78
2022/09/21 01:00:23;;;;;;;;;;;;;;;;;;4992429;28;19925;-78
2022/09/21 01:02:49;;;;;;;;;;;;;;;;;;4992303;28;19973;-79
2022/09/21 01:05:14;;;;;;;;;;;;;;;;;;4991743;28;20304;-78
2022/09/21 01:07:39;;;;;;;;;;;;;;;;;;4993098;28;19921;-78
2022/09/21 01:10:05;;;;;;;;;;;;;;;;;;4992865;28;19928;-78
2022/09/21 01:12:30;;;;;;;;;;;;;;;;;;4991838;28;20419;-78
2022/09/21 01:14:55;;;;;;;;;;;;;;;;;;4975984;28;20400;-78
2022/09/21 01:17:21;;;;;;;;;;;;;;;;;;4992563;28;19945;-78
2022/09/21 01:19:46;;;;;;;;;;;;;;;;;;4991434;28;19999;-78
2022/09/21 01:22:11;;;;;;;;;;;;;;;;;;4976029;28;19925;-78
2022/09/21 01:24:37;;;;;;;;;;;;;;;;;;4976357;28;20048;-77
2022/09/21 01:27:03;;;;;;;;;;;;;;;;;;4993544;28;19922;-79
2022/09/21 01:29:28;;;;;;;;;;;;;;;;;;4992764;28;19954;-78
2022/09/21 01:31:53;;;;;;;;;;;;;;;;;;4993724;28;20439;-78
2022/09/21 01:34:19;;;;;;;;;;;;;;;;;;4992624;28;20029;-79
2022/09/21 01:36:44;;;;;;;;;;;;;;;;;;4992325;28;19914;-78
2022/09/21 01:39:09;;;;;;;;;;;;;;;;;;5005114;23;19918;-77
2022/09/21 01:41:35;;;;;;;;;;;;;;;;;;4990604;28;20365;-77
2022/09/21 01:44:01;;;;;;;;;;;;;;;;;;4992523;28;19918;-75
2022/09/21 01:46:26;;;;;;;;;;;;;;;;;;4988356;28;19962;-76
2022/09/21 01:48:51;;;;;;;;;;;;;;;;;;4991976;28;19960;-75
2022/09/21 01:51:17;;;;;;;;;;;;;;;;;;4993114;28;19914;-75
2022/09/21 01:53:42;;;;;;;;;;;;;;;;;;4992409;28;20369;-76
2022/09/21 01:56:08;;;;;;;;;;;;;;;;;;4996093;28;19920;-77
2022/09/21 01:58:33;;;;;;;;;;;;;;;;;;4963117;28;19921;-75
2022/09/21 02:00:58;;;;;;;;;;;;;;;;;;4995839;28;20392;-76
2022/09/21 02:03:23;;;;;;;;;;;;;;;;;;4995193;28;20365;-77
2022/09/21 02:05:49;;;;;;;;;;;;;;;;;;4996621;28;20423;-75
2022/09/21 02:08:14;;;;;;;;;;;;;;;;;;4995470;28;19913;-75
2022/09/21 02:10:40;;;;;;;;;;;;;;;;;;4995631;28;19961;-77
2022/09/21 02:13:05;;;;;;;;;;;;;;;;;;4996276;28;20403;-76
2022/09/21 02:15:31;;;;;;;;;;;;;;;;;;4995481;28;19914;-76
2022/09/21 02:17:57;;;;;;;;;;;;;;;;;;4996676;28;19921;-75
2022/09/21 02:20:22;;;;;;;;;;;;;;;;;;4996639;28;19925;-77
2022/09/21 02:22:48;;;;;;;;;;;;;;;;;;4996591;28;20328;-77
2022/09/21 02:25:13;;;;;;;;;;;;;;;;;;4996711;28;20288;-76
2022/09/21 02:27:38;;;;;;;;;;;;;;;;;;4995155;28;19914;-77
2022/09/21 02:30:04;;;;;;;;;;;;;;;;;;4996309;28;20419;-77
2022/09/21 02:32:32;;;;;;;;;;;;;;;;;;4996138;28;20017;-76
2022/09/21 02:34:57;;;;;;;;;;;;;;;;;;4978984;28;19913;-76
2022/09/21 02:37:22;;;;;;;;;;;;;;;;;;4996081;28;19918;-76
2022/09/21 02:39:49;;;;;;;;;;;;;;;;;;4996826;28;19922;-77
2022/09/21 02:42:14;;;;;;;;;;;;;;;;;;4994651;28;19922;-77
2022/09/21 02:44:39;;;;;;;;;;;;;;;;;;4995549;28;19921;-77
2022/09/21 02:47:05;;;;;;;;;;;;;;;;;;4995768;28;19914;-75
2022/09/21 02:49:30;;;;;;;;;;;;;;;;;;4994582;28;20492;-76
2022/09/21 02:51:55;;;;;;;;;;;;;;;;;;4995634;28;19914;-75
2022/09/21 02:54:21;;;;;;;;;;;;;;;;;;4995395;28;19913;-76
2022/09/21 02:56:46;;;;;;;;;;;;;;;;;;4994374;28;19918;-77
2022/09/21 02:59:12;;;;;;;;;;;;;;;;;;4993799;28;20288;-76
2022/09/21 03:01:38;;;;;;;;;;;;;;;;;;4994135;28;20278;-76
2022/09/21 03:04:03;;;;;;;;;;;;;;;;;;4978037;28;19920;-77
2022/09/21 03:06:30;;;;;;;;;;;;;;;;;;4994935;28;20397;-77
2022/09/21 03:08:56;;;;;;;;;;;;;;;;;;4978124;28;20396;-78
2022/09/21 03:11:22;;;;;;;;;;;;;;;;;;4994420;28;19945;-75
2022/09/21 03:13:47;;;;;;;;;;;;;;;;;;4994149;28;19965;-75
2022/09/21 03:16:12;;;;;;;;;;;;;;;;;;4993688;28;20432;-77
2022/09/21 03:18:39;;;;;;;;;;;;;;;;;;4994825;28;20419;-76
2022/09/21 03:21:04;;;;;;;;;;;;;;;;;;4995061;28;19968;-76
2022/09/21 03:23:29;;;;;;;;;;;;;;;;;;4994872;28;20272;-76
2022/09/21 03:25:55;;;;;;;;;;;;;;;;;;4993952;28;20448;-76
2022/09/21 03:28:20;;;;;;;;;;;;;;;;;;4994896;28;20377;-75
2022/09/21 03:30:45;;;;;;;;;;;;;;;;;;4995109;28;19918;-77
2022/09/21 03:33:11;;;;;;;;;;;;;;;;;;4993717;28;20378;-75
2022/09/21 03:35:37;;;;;;;;;;;;;;;;;;4993339;28;19912;-76
2022/09/21 03:38:02;;;;;;;;;;;;;;;;;;4994770;28;20400;-77
2022/09/21 03:40:27;;;;;;;;;;;;;;;;;;4993435;28;19925;-77
2022/09/21 03:42:53;;;;;;;;;;;;;;;;;;4994417;28;20381;-76
2022/09/21 03:45:18;;;;;;;;;;;;;;;;;;4994510;28;20072;-75
2022/09/21 03:47:44;;;;;;;;;;;;;;;;;;4994483;28;20377;-76
2022/09/21 03:50:09;;;;;;;;;;;;;;;;;;4976764;28;20090;-77
2022/09/21 03:52:38;;;;;;;;;;;;;;;;;;4994243;28;19921;-77
2022/09/21 03:55:05;;;;;;;;;;;;;;;;;;4993276;28;19914;-76
2022/09/21 03:57:30;;;;;;;;;;;;;;;;;;4994640;28;20004;-77
2022/09/21 03:59:56;;;;;;;;;;;;;;;;;;4994096;28;20099;-77
2022/09/21 04:02:21;;;;;;;;;;;;;;;;;;4994178;28;19920;-77
2022/09/21 04:04:46;;;;;;;;;;;;;;;;;;4994311;28;20361;-75
2022/09/21 04:07:14;;;;;;;;;;;;;;;;;;4976618;28;19933;-76
2022/09/21 04:09:39;;;;;;;;;;;;;;;;;;4995048;28;19918;-77
2022/09/21 04:12:04;;;;;;;;;;;;;;;;;;4992917;28;20423;-77
2022/09/21 04:14:30;;;;;;;;;;;;;;;;;;4992820;28;19913;-75
2022/09/21 04:16:56;;;;;;;;;;;;;;;;;;4992117;28;19964;-75
2022/09/21 04:19:21;;;;;;;;;;;;;;;;;;4992438;28;19918;-78
2022/09/21 04:21:46;;;;;;;;;;;;;;;;;;4993056;28;19980;-77
2022/09/21 04:24:12;;;;;;;;;;;;;;;;;;4992427;28;19953;-78
2022/09/21 04:26:39;;;;;;;;;;;;;;;;;;4993149;28;20431;-78
2022/09/21 04:29:05;;;;;;;;;;;;;;;;;;4977317;28;19921;-77
2022/09/21 04:31:30;;;;;;;;;;;;;;;;;;4994666;28;20312;-77
2022/09/21 04:33:56;;;;;;;;;;;;;;;;;;4994290;28;19988;-77
2022/09/21 04:36:21;;;;;;;;;;;;;;;;;;4993784;28;20392;-75
2022/09/21 04:38:46;;;;;;;;;;;;;;;;;;4976515;28;19917;-77
2022/09/21 04:41:12;;;;;;;;;;;;;;;;;;4972596;28;19925;-77
2022/09/21 04:43:37;;;;;;;;;;;;;;;;;;4985488;28;19910;-78
2022/09/21 04:46:02;;;;;;;;;;;;;;;;;;4976375;28;19914;-77
2022/09/21 04:48:28;;;;;;;;;;;;;;;;;;4993589;28;20269;-77
2022/09/21 04:50:53;;;;;;;;;;;;;;;;;;4992329;28;19960;-77
2022/09/21 04:53:18;;;;;;;;;;;;;;;;;;4993985;28;20381;-77
2022/09/21 04:55:44;;;;;;;;;;;;;;;;;;4996086;28;19921;-79
2022/09/21 04:58:09;;;;;;;;;;;;;;;;;;4993285;28;19914;-78
2022/09/21 05:00:35;;;;;;;;;;;;;;;;;;4993161;28;19926;-77
2022/09/21 05:03:00;;;;;;;;;;;;;;;;;;4993285;28;19913;-76
2022/09/21 05:05:26;;;;;;;;;;;;;;;;;;4992397;28;19921;-77
2022/09/21 05:07:51;;;;;;;;;;;;;;;;;;4992187;28;19914;-76
2022/09/21 05:10:16;;;;;;;;;;;;;;;;;;4992831;28;20387;-77
2022/09/21 05:12:42;;;;;;;;;;;;;;;;;;4992119;28;19920;-78
2022/09/21 05:15:07;;;;;;;;;;;;;;;;;;4976328;28;20404;-78
2022/09/21 05:17:33;;;;;;;;;;;;;;;;;;4975709;28;19995;-76
2022/09/21 05:19:58;;;;;;;;;;;;;;;;;;4975098;28;19921;-78
2022/09/21 05:22:24;;;;;;;;;;;;;;;;;;4991113;28;19917;-77
2022/09/21 05:24:49;;;;;;;;;;;;;;;;;;4991777;28;19968;-77
2022/09/21 05:27:14;;;;;;;;;;;;;;;;;;4991464;28;19914;-76
2022/09/21 05:29:40;;;;;;;;;;;;;;;;;;4991055;28;20305;-77
2022/09/21 05:32:05;;;;;;;;;;;;;;;;;;4975628;28;19953;-77
2022/09/21 05:34:30;;;;;;;;;;;;;;;;;;4991918;28;20439;-76
2022/09/21 05:36:56;;;;;;;;;;;;;;;;;;4994073;28;19918;-76
2022/09/21 05:39:21;;;;;;;;;;;;;;;;;;4976052;28;19917;-78
2022/09/21 05:41:48;;;;;;;;;;;;;;;;;;4993358;28;20283;-78
2022/09/21 05:44:14;;;;;;;;;;;;;;;;;;4993865;28;19964;-77
2022/09/21 05:46:39;;;;;;;;;;;;;;;;;;4991625;28;20352;-78
2022/09/21 05:49:05;;;;;;;;;;;;;;;;;;4992593;28;20012;-77
2022/09/21 05:51:30;;;;;;;;;;;;;;;;;;4991918;28;19972;-77
2022/09/21 05:53:55;;;;;;;;;;;;;;;;;;4992854;28;20086;-78
2022/09/21 05:56:20;;;;;;;;;;;;;;;;;;4992565;28;19981;-78
2022/09/21 05:58:46;;;;;;;;;;;;;;;;;;4991710;28;20373;-78
2022/09/21 06:01:11;;;;;;;;;;;;;;;;;;4993219;28;20391;-77
2022/09/21 06:03:36;;;;;;;;;;;;;;;;;;4991201;28;19963;-77
2022/09/21 06:06:02;;;;;;;;;;;;;;;;;;4975125;28;20015;-78
2022/09/21 06:08:27;;;;;;;;;;;;;;;;;;4992282;28;20072;-76
2022/09/21 06:10:53;;;;;;;;;;;;;;;;;;4991979;28;19949;-76
2022/09/21 06:13:18;;;;;;;;;;;;;;;;;;4990784;28;20388;-76
2022/09/21 06:15:43;;;;;;;;;;;;;;;;;;4992239;28;20380;-77
2022/09/21 06:18:09;;;;;;;;;;;;;;;;;;4991099;28;19937;-77
2022/09/21 06:20:34;;;;;;;;;;;;;;;;;;4991115;28;19937;-77
2022/09/21 06:23:00;;;;;;;;;;;;;;;;;;4992200;28;19921;-76
2022/09/21 06:25:25;;;;;;;;;;;;;;;;;;4990874;28;19960;-76
2022/09/21 06:27:51;;;;;;;;;;;;;;;;;;4992109;28;20372;-77
2022/09/21 06:30:16;;;;;;;;;;;;;;;;;;4991902;28;19929;-77
2022/09/21 06:32:42;;;;;;;;;;;;;;;;;;4990705;28;19913;-77
2022/09/21 06:35:07;;;;;;;;;;;;;;;;;;4989543;28;20005;-77
2022/09/21 06:37:32;;;;;;;;;;;;;;;;;;4974149;28;19929;-78
2022/09/21 06:39:58;;;;;;;;;;;;;;;;;;4989997;28;19918;-77
2022/09/21 06:42:23;;;;;;;;;;;;;;;;;;4989922;28;19914;-77
2022/09/21 06:44:48;;;;;;;;;;;;;;;;;;4993878;28;19914;-78
2022/09/21 06:47:14;;;;;;;;;;;;;;;;;;4977774;28;19914;-78
2022/09/21 06:49:39;;;;;;;;;;;;;;;;;;4993877;28;20321;-76
2022/09/21 06:52:04;;;;;;;;;;;;;;;;;;4995400;28;19917;-78
2022/09/21 06:54:30;;;;;;;;;;;;;;;;;;4995436;28;19922;-77
2022/09/21 06:56:55;;;;;;;;;;;;;;;;;;4995393;28;19914;-78
2022/09/21 06:59:20;;;;;;;;;;;;;;;;;;4994188;28;19917;-77
2022/09/21 07:01:46;;;;;;;;;;;;;;;;;;4994883;28;19917;-77
2022/09/21 07:04:11;;;;;;;;;;;;;;;;;;4995392;28;19914;-77
2022/09/21 07:06:36;;;;;;;;;;;;;;;;;;4994984;28;20297;-77
2022/09/21 07:09:02;;;;;;;;;;;;;;;;;;4983372;28;19933;-76
2022/09/21 07:11:27;;;;;;;;;;;;;;;;;;4994927;28;19914;-77
2022/09/21 07:13:52;;;;;;;;;;;;;;;;;;4993755;28;19952;-77
2022/09/21 07:16:18;;;;;;;;;;;;;;;;;;4994786;28;20500;-77
2022/09/21 07:18:43;;;;;;;;;;;;;;;;;;4977759;28;20345;-78
2022/09/21 07:21:09;;;;;;;;;;;;;;;;;;4995114;28;19956;-76
2022/09/21 07:23:34;;;;;;;;;;;;;;;;;;4991521;28;19913;-77
2022/09/21 07:26:00;;;;;;;;;;;;;;;;;;4988241;28;19913;-78
2022/09/21 07:28:25;;;;;;;;;;;;;;;;;;4994830;28;19914;-78
2022/09/21 07:30:50;;;;;;;;;;;;;;;;;;5002398;28;19976;-84
2022/09/21 07:33:16;;;;;;;;;;;;;;;;;;4992499;28;20419;-86
2022/09/21 07:35:41;;;;;;;;;;;;;;;;;;4987673;28;19921;-87
2022/09/21 07:38:07;;;;;;;;;;;;;;;;;;4986586;28;19913;-86
2022/09/21 07:40:32;;;;;;;;;;;;;;;;;;5009970;28;19919;-86
2022/09/21 07:42:58;;;;;;;;;;;;;;;;;;4984244;28;20360;-89
2022/09/21 07:45:24;;;;;;;;;;;;;;;;;;5000907;28;19921;-87
2022/09/21 07:47:49;;;;;;;;;;;;;;;;;;5003805;28;19948;-87
2022/09/21 07:50:15;;;;;;;;;;;;;;;;;;4994576;28;20377;-88
2022/09/21 07:52:41;;;;;;;;;;;;;;;;;;4963365;28;19949;-90
2022/09/21 07:55:07;;;;;;;;;;;;;;;;;;4970644;28;19918;-89
2022/09/21 08:00:16;;;;;;;;;;;;;;;;;;4996571;28;19922;-90
2022/09/21 08:02:42;;;;;;;;;;;;;;;;;;5010255;28;20093;-90
2022/09/21 08:05:07;;;;;;;;;;;;;;;;;;4996337;28;20008;-88
2022/09/21 08:07:34;;;;;;;;;;;;;;;;;;4996337;28;20285;-85
2022/09/21 08:09:59;;;;;;;;;;;;;;;;;;4993964;28;19936;-85
2022/09/21 08:12:24;;;;;;;;;;;;;;;;;;4992527;28;20350;-85
2022/09/21 08:14:50;;;;;;;;;;;;;;;;;;4973633;28;20011;-83
2022/09/21 08:17:15;;;;;;;;;;;;;;;;;;4992718;28;19913;-82
2022/09/21 08:19:41;;;;;;;;;;;;;;;;;;4992285;28;19961;-80
2022/09/21 08:22:11;;;;;;;;;;;;;;;;;;4992602;28;19914;-83
2022/09/21 08:24:36;;;;;;;;;;;;;;;;;;4993727;28;19924;-82
2022/09/21 08:27:01;;;;;;;;;;;;;;;;;;4991906;28;20008;-82
2022/09/21 08:29:28;;;;;;;;;;;;;;;;;;4994173;28;20421;-84
2022/09/21 08:31:53;;;;;;;;;;;;;;;;;;4993781;28;19917;-84
2022/09/21 08:34:19;;;;;;;;;;;;;;;;;;4994032;28;20445;-82
2022/09/21 08:36:45;;;;;;;;;;;;;;;;;;4993879;28;20412;-80
2022/09/21 08:39:10;;;;;;;;;;;;;;;;;;4993347;28;20016;-83
2022/09/21 08:41:35;;;;;;;;;;;;;;;;;;5010810;28;19963;-85
2022/09/21 08:44:01;;;;;;;;;;;;;;;;;;4998646;28;20131;-76
2022/09/21 08:46:26;;;;;;;;;;;;;;;;;;5005273;28;20387;-78
2022/09/21 08:48:52;;;;;;;;;;;;;;;;;;4991716;28;19920;-77
2022/09/21 08:51:17;;;;;;;;;;;;;;;;;;4991721;28;20285;-77
2022/09/21 08:53:43;;;;;;;;;;;;;;;;;;4992092;28;19914;-77
2022/09/21 08:56:08;;;;;;;;;;;;;;;;;;4991786;28;19909;-78
2022/09/21 08:58:33;;;;;;;;;;;;;;;;;;4991393;28;20297;-77
2022/09/21 09:00:59;;;;;;;;;;;;;;;;;;4992613;28;19917;-77
2022/09/21 09:03:24;;;;;;;;;;;;;;;;;;4992744;28;19914;-76
2022/09/21 09:05:50;;;;;;;;;;;;;;;;;;4976763;28;20009;-74
2022/09/21 09:08:17;;;;;;;;;;;;;;;;;;4976761;28;19913;-74
2022/09/21 09:10:43;;;;;;;;;;;;;;;;;;4979623;28;19913;-76
2022/09/21 09:13:08;;;;;;;;;;;;;;;;;;5001514;28;20254;-75
2022/09/21 09:15:33;;;;;;;;;;;;;;;;;;4989686;28;20242;-76
2022/09/21 09:17:59;;;;;;;;;;;;;;;;;;5008406;28;19913;-76
2022/09/21 09:20:24;;;;;;;;;;;;;;;;;;4999494;28;19968;-78
2022/09/21 09:22:50;;;;;;;;;;;;;;;;;;4996324;28;20183;-76
2022/09/21 09:25:15;;;;;;;;;;;;;;;;;;5000263;28;19953;-77
2022/09/21 09:27:40;;;;;;;;;;;;;;;;;;4997616;28;20024;-74
2022/09/21 09:30:06;;;;;;;;;;;;;;;;;;5000989;28;19918;-77
2022/09/21 09:32:31;;;;;;;;;;;;;;;;;;4993094;28;20300;-77
2022/09/21 09:34:57;;;;;;;;;;;;;;;;;;4992799;28;19961;-76
2022/09/21 09:37:22;;;;;;;;;;;;;;;;;;4996617;28;19977;-79
2022/09/21 09:39:47;;;;;;;;;;;;;;;;;;4999802;28;19917;-90
2022/09/21 09:42:13;;;;;;;;;;;;;;;;;;4991443;28;20007;-79
2022/09/21 09:44:38;;;;;;;;;;;;;;;;;;4992226;28;19929;-80
2022/09/21 09:47:04;;;;;;;;;;;;;;;;;;4988557;28;20017;-77
2022/09/21 09:49:29;;;;;;;;;;;;;;;;;;4988895;28;19914;-78
2022/09/21 09:51:54;;;;;;;;;;;;;;;;;;4991021;28;19910;-77
2022/09/21 09:54:20;;;;;;;;;;;;;;;;;;4991369;28;19934;-77
2022/09/21 09:56:46;;;;;;;;;;;;;;;;;;4993022;28;20289;-77
2022/09/21 09:59:11;;;;;;;;;;;;;;;;;;4991519;28;19939;-78
2022/09/21 10:01:37;;;;;;;;;;;;;;;;;;4991754;28;19925;-78
2022/09/21 10:04:02;;;;;;;;;;;;;;;;;;4992160;28;19917;-77
2022/09/21 10:06:27;;;;;;;;;;;;;;;;;;4992454;28;19997;-79
2022/09/21 10:08:53;;;;;;;;;;;;;;;;;;4993153;28;19997;-79
2022/09/21 10:11:18;;;;;;;;;;;;;;;;;;4992108;28;19913;-80
2022/09/21 10:13:43;;;;;;;;;;;;;;;;;;4991297;28;20377;-80
2022/09/21 10:16:09;;;;;;;;;;;;;;;;;;4992055;28;20013;-81
2022/09/21 10:18:34;;;;;;;;;;;;;;;;;;4988097;28;21117;-79
2022/09/21 10:20:59;;;;;;;;;;;;;;;;;;4992824;28;19918;-79
2022/09/21 10:23:25;;;;;;;;;;;;;;;;;;4992108;28;19914;-79
2022/09/21 10:25:50;;;;;;;;;;;;;;;;;;4996202;28;20447;-79
2022/09/21 10:28:16;;;;;;;;;;;;;;;;;;4994699;28;19968;-79
2022/09/21 10:30:41;;;;;;;;;;;;;;;;;;4996132;28;19921;-79
2022/09/21 10:33:06;;;;;;;;;;;;;;;;;;4991816;28;20408;-80
2022/09/21 10:35:32;;;;;;;;;;;;;;;;;;4991451;28;20128;-79
2022/09/21 10:38:01;;;;;;;;;;;;;;;;;;4998006;28;19913;-80
2022/09/21 10:40:26;;;;;;;;;;;;;;;;;;4995567;28;20126;-80
2022/09/21 10:42:52;;;;;;;;;;;;;;;;;;4986391;28;19948;-79
2022/09/21 10:45:17;;;;;;;;;;;;;;;;;;5003482;28;19937;-79
2022/09/21 10:47:43;;;;;;;;;;;;;;;;;;4994000;28;19918;-79
2022/09/21 10:50:08;;;;;;;;;;;;;;;;;;4993952;28;19988;-80
2022/09/21 10:52:33;;;;;;;;;;;;;;;;;;4993093;28;19913;-80
2022/09/21 10:54:59;;;;;;;;;;;;;;;;;;4974040;28;20393;-81
2022/09/21 10:57:24;;;;;;;;;;;;;;;;;;4987284;28;19915;-82
2022/09/21 10:59:49;;;;;;;;;;;;;;;;;;4993331;28;19918;-81
2022/09/21 11:02:15;;;;;;;;;;;;;;;;;;4994153;28;20013;-81
2022/09/21 11:04:40;;;;;;;;;;;;;;;;;;4995924;28;19964;-81
2022/09/21 11:07:06;;;;;;;;;;;;;;;;;;4976756;28;20393;-82
2022/09/21 11:09:31;;;;;;;;;;;;;;;;;;4994734;28;19917;-78
2022/09/21 11:11:57;;;;;;;;;;;;;;;;;;4994872;28;19917;-79
2022/09/21 11:14:22;;;;;;;;;;;;;;;;;;4995964;28;19914;-80
2022/09/21 11:16:48;;;;;;;;;;;;;;;;;;4995663;28;19913;-79
2022/09/21 11:19:13;;;;;;;;;;;;;;;;;;4979409;28;20381;-79
2022/09/21 11:21:41;;;;;;;;;;;;;;;;;;4986895;28;19921;-79
2022/09/21 11:24:07;;;;;;;;;;;;;;;;;;4992773;28;20324;-80
2022/09/21 11:26:32;;;;;;;;;;;;;;;;;;4993903;28;19914;-81
2022/09/21 11:28:59;;;;;;;;;;;;;;;;;;4994262;28;20456;-80
2022/09/21 11:31:24;;;;;;;;;;;;;;;;;;4993505;28;19918;-80
2022/09/21 11:33:49;;;;;;;;;;;;;;;;;;4991455;28;20024;-80
2022/09/21 11:36:15;;;;;;;;;;;;;;;;;;4991877;28;19938;-80
2022/09/21 11:38:40;;;;;;;;;;;;;;;;;;4992355;28;20416;-79
2022/09/21 11:41:06;;;;;;;;;;;;;;;;;;4993805;28;19921;-80
2022/09/21 11:43:31;;;;;;;;;;;;;;;;;;4993224;28;20344;-80
2022/09/21 11:45:58;;;;;;;;;;;;;;;;;;4996687;28;20374;-79
2022/09/21 11:48:23;;;;;;;;;;;;;;;;;;4994649;28;19914;-80
2022/09/21 11:50:49;;;;;;;;;;;;;;;;;;4994237;28;20277;-80
2022/09/21 11:53:15;;;;;;;;;;;;;;;;;;4994658;28;20373;-79
2022/09/21 11:55:43;;;;;;;;;;;;;;;;;;4993386;28;20388;-79
2022/09/21 11:58:09;;;;;;;;;;;;;;;;;;4993936;28;19963;-80
2022/09/21 12:00:34;;;;;;;;;;;;;;;;;;4994758;28;20353;-80
2022/09/21 12:02:59;;;;;;;;;;;;;;;;;;4993473;28;20289;-79
2022/09/21 12:05:25;;;;;;;;;;;;;;;;;;4994873;28;19920;-79
2022/09/21 12:07:51;;;;;;;;;;;;;;;;;;4993148;28;19945;-80
2022/09/21 12:10:16;;;;;;;;;;;;;;;;;;4994031;28;20012;-80
2022/09/21 12:12:41;;;;;;;;;;;;;;;;;;4992385;28;20404;-79
2022/09/21 12:15:07;;;;;;;;;;;;;;;;;;4994061;28;19940;-79
2022/09/21 12:17:33;;;;;;;;;;;;;;;;;;4993265;28;20381;-79
2022/09/21 12:20:01;;;;;;;;;;;;;;;;;;4993812;28;20423;-79
2022/09/21 12:22:26;;;;;;;;;;;;;;;;;;4993610;28;20499;-79
2022/09/21 12:24:51;;;;;;;;;;;;;;;;;;4993775;28;20008;-79
2022/09/21 12:27:17;;;;;;;;;;;;;;;;;;4994573;28;19993;-80
2022/09/21 12:29:46;;;;;;;;;;;;;;;;;;4993082;28;19918;-80
2022/09/21 12:32:11;;;;;;;;;;;;;;;;;;4993442;28;19913;-79
2022/09/21 12:34:38;;;;;;;;;;;;;;;;;;4992131;28;19918;-78
2022/09/21 12:37:04;;;;;;;;;;;;;;;;;;4992656;28;19914;-79
2022/09/21 12:39:29;;;;;;;;;;;;;;;;;;4992691;28;20343;-80
2022/09/21 12:41:55;;;;;;;;;;;;;;;;;;4976267;28;19928;-79
2022/09/21 12:44:20;;;;;;;;;;;;;;;;;;4992417;28;19914;-78
2022/09/21 12:46:46;;;;;;;;;;;;;;;;;;4994308;28;20292;-80
2022/09/21 12:49:13;;;;;;;;;;;;;;;;;;4993241;28;19960;-80
2022/09/21 12:51:39;;;;;;;;;;;;;;;;;;4959864;28;20259;-79
2022/09/21 12:54:05;;;;;;;;;;;;;;;;;;4992680;28;19913;-79
2022/09/21 12:56:30;;;;;;;;;;;;;;;;;;4993327;28;19936;-80
2022/09/21 12:58:56;;;;;;;;;;;;;;;;;;4993725;28;20369;-79
2022/09/21 13:01:22;;;;;;;;;;;;;;;;;;4993468;28;20269;-79
2022/09/21 13:03:47;;;;;;;;;;;;;;;;;;4992791;28;19921;-79
2022/09/21 13:06:12;;;;;;;;;;;;;;;;;;4993320;28;20349;-79
2022/09/21 13:08:38;;;;;;;;;;;;;;;;;;4993463;28;19910;-80
2022/09/21 13:11:09;;;;;;;;;;;;;;;;;;4993213;28;19921;-79
2022/09/21 13:13:35;;;;;;;;;;;;;;;;;;4992304;28;19924;-80
2022/09/21 13:16:00;;;;;;;;;;;;;;;;;;4991825;28;20241;-79
2022/09/21 13:18:25;;;;;;;;;;;;;;;;;;4993026;28;19965;-80
2022/09/21 13:20:52;;;;;;;;;;;;;;;;;;4975844;28;19922;-80
2022/09/21 13:23:17;;;;;;;;;;;;;;;;;;4991934;28;19964;-78
2022/09/21 13:25:47;;;;;;;;;;;;;;;;;;4992147;28;20336;-81
2022/09/21 13:28:12;;;;;;;;;;;;;;;;;;4991745;28;19913;-80
2022/09/21 13:30:38;;;;;;;;;;;;;;;;;;4991251;28;19914;-80
2022/09/21 13:33:04;;;;;;;;;;;;;;;;;;4992677;28;20013;-80
2022/09/21 13:35:29;;;;;;;;;;;;;;;;;;4994156;28;20295;-78
2022/09/21 13:37:55;;;;;;;;;;;;;;;;;;4976137;28;19914;-79
2022/09/21 13:40:23;;;;;;;;;;;;;;;;;;4991010;28;19918;-80
2022/09/21 13:42:49;;;;;;;;;;;;;;;;;;4992581;28;19914;-80
2022/09/21 13:45:14;;;;;;;;;;;;;;;;;;4992279;28;20282;-80
2022/09/21 13:47:40;;;;;;;;;;;;;;;;;;4976131;28;19914;-79
2022/09/21 13:50:05;;;;;;;;;;;;;;;;;;4991764;28;19913;-78
2022/09/21 13:52:31;;;;;;;;;;;;;;;;;;4992696;28;19921;-81
2022/09/21 13:54:56;;;;;;;;;;;;;;;;;;4994256;28;20407;-81
2022/09/21 13:57:22;;;;;;;;;;;;;;;;;;4992690;28;20356;-81
2022/09/21 13:59:48;;;;;;;;;;;;;;;;;;4993432;28;20397;-80
2022/09/21 14:02:13;;;;;;;;;;;;;;;;;;4992994;28;20007;-79
2022/09/21 14:04:39;;;;;;;;;;;;;;;;;;4993415;28;20293;-79
2022/09/21 14:07:04;;;;;;;;;;;;;;;;;;4992998;28;20075;-79
2022/09/21 14:09:30;;;;;;;;;;;;;;;;;;4993334;28;19914;-80
2022/09/21 14:11:55;;;;;;;;;;;;;;;;;;4990946;28;20388;-79
2022/09/21 14:14:21;;;;;;;;;;;;;;;;;;4991609;28;19956;-79
2022/09/21 14:16:46;;;;;;;;;;;;;;;;;;4992242;28;19982;-80
2022/09/21 14:19:11;;;;;;;;;;;;;;;;;;4992590;28;19960;-80
2022/09/21 14:21:37;;;;;;;;;;;;;;;;;;4991602;28;20021;-80
2022/09/21 14:24:03;;;;;;;;;;;;;;;;;;4991606;28;19921;-78
2022/09/21 14:26:30;;;;;;;;;;;;;;;;;;4995424;28;19921;-81
2022/09/21 14:28:55;;;;;;;;;;;;;;;;;;4995517;28;20430;-80
2022/09/21 14:31:21;;;;;;;;;;;;;;;;;;4992337;28;19909;-79
2022/09/21 14:33:47;;;;;;;;;;;;;;;;;;4995244;28;19918;-79
2022/09/21 14:36:12;;;;;;;;;;;;;;;;;;4995417;28;20403;-79
2022/09/21 14:38:39;;;;;;;;;;;;;;;;;;4993366;28;19913;-80
2022/09/21 14:41:06;;;;;;;;;;;;;;;;;;4996030;28;19917;-80
2022/09/21 14:43:34;;;;;;;;;;;;;;;;;;4993070;28;19922;-82
2022/09/21 14:46:00;;;;;;;;;;;;;;;;;;4995583;28;19914;-78
2022/09/21 14:48:29;;;;;;;;;;;;;;;;;;4978085;28;20371;-79
2022/09/21 14:50:54;;;;;;;;;;;;;;;;;;4992750;28;19921;-80
2022/09/21 14:53:22;;;;;;;;;;;;;;;;;;4990709;28;19914;-79
2022/09/21 14:55:48;;;;;;;;;;;;;;;;;;4992028;28;19917;-80
2022/09/21 14:58:13;;;;;;;;;;;;;;;;;;4990464;28;20397;-80
2022/09/21 15:00:39;;;;;;;;;;;;;;;;;;4991897;28;19918;-79
2022/09/21 15:03:04;;;;;;;;;;;;;;;;;;4994836;28;19914;-79
2022/09/21 15:05:29;;;;;;;;;;;;;;;;;;4993576;28;19922;-78
2022/09/21 15:10:57;;;;;;;;;;;;;;;;;;4995004;28;19914;-80
2022/09/21 15:13:23;;;;;;;;;;;;;;;;;;4980242;28;19914;-78
2022/09/21 15:15:50;;;;;;;;;;;;;;;;;;4988094;28;19910;-78
2022/09/21 15:18:19;;;;;;;;;;;;;;;;;;4995130;28;20353;-81
2022/09/21 15:20:45;;;;;;;;;;;;;;;;;;4994619;28;19918;-80
2022/09/21 15:23:10;;;;;;;;;;;;;;;;;;4995423;28;19925;-79
2022/09/21 15:25:36;;;;;;;;;;;;;;;;;;4995773;28;19996;-78
2022/09/21 15:28:02;;;;;;;;;;;;;;;;;;4995979;28;19914;-79
2022/09/21 15:30:28;;;;;;;;;;;;;;;;;;4996005;28;20349;-80
2022/09/21 15:32:53;;;;;;;;;;;;;;;;;;4994309;28;19946;-78
2022/09/21 15:35:19;;;;;;;;;;;;;;;;;;4994604;28;20414;-80
2022/09/21 15:37:44;;;;;;;;;;;;;;;;;;4991364;28;19971;-79
2022/09/21 15:40:10;;;;;;;;;;;;;;;;;;5005763;28;20508;-78
2022/09/21 15:42:35;;;;;;;;;;;;;;;;;;4994081;28;19921;-79
2022/09/21 15:45:04;;;;;;;;;;;;;;;;;;4995495;28;20285;-80
2022/09/21 15:47:30;;;;;;;;;;;;;;;;;;4995229;28;19921;-80
2022/09/21 15:49:55;;;;;;;;;;;;;;;;;;4995161;28;19910;-80
2022/09/21 15:52:21;;;;;;;;;;;;;;;;;;4994968;28;19914;-79
2022/09/21 15:54:47;;;;;;;;;;;;;;;;;;4994450;28;19917;-79
2022/09/21 15:57:14;;;;;;;;;;;;;;;;;;4993858;28;19914;-80
2022/09/21 15:59:42;;;;;;;;;;;;;;;;;;4994397;28;19921;-80
2022/09/21 16:02:08;;;;;;;;;;;;;;;;;;4994286;28;19913;-79
2022/09/21 16:04:38;;;;;;;;;;;;;;;;;;4994618;28;19913;-80
2022/09/21 16:07:03;;;;;;;;;;;;;;;;;;4994233;28;19920;-78
2022/09/21 16:09:28;;;;;;;;;;;;;;;;;;4993293;28;19910;-79
2022/09/21 16:11:54;;;;;;;;;;;;;;;;;;4992355;28;20010;-80
2022/09/21 16:17:04;;;;;;;;;;;;;;;;;;4994802;28;19917;-79
2022/09/21 16:19:29;;;;;;;;;;;;;;;;;;4993983;28;20435;-80
2022/09/21 16:21:55;;;;;;;;;;;;;;;;;;4994297;28;20290;-80
2022/09/21 16:24:21;;;;;;;;;;;;;;;;;;4992572;28;19914;-79
2022/09/21 16:26:47;;;;;;;;;;;;;;;;;;4991940;28;19917;-79
2022/09/21 16:29:12;;;;;;;;;;;;;;;;;;4993691;28;19914;-79
2022/09/21 16:31:37;;;;;;;;;;;;;;;;;;4993404;28;19913;-79
2022/09/21 16:34:06;;;;;;;;;;;;;;;;;;4992888;28;19914;-80
2022/09/21 16:36:31;;;;;;;;;;;;;;;;;;4992730;28;20353;-77
2022/09/21 16:38:57;;;;;;;;;;;;;;;;;;4976995;28;19925;-80
2022/09/21 16:41:23;;;;;;;;;;;;;;;;;;4994354;28;20297;-79
2022/09/21 16:43:49;;;;;;;;;;;;;;;;;;4992989;28;19932;-78